Time;durP1;ratioP1;P1;durP2;ratioP2;P2;SDS_P1;SDS_P2;PMS_P1;PMS_P2;Temp;Humidity;BMP_temperature;BMP_pressure;BME280_temperature;BME280_humidity;BME280_pressure;Samples;Min_cycle;Max_cycle;Signal;HPM_P1;HPM_P2
2023/08/01 00:02:00;;;;;;;5.75;2.42;;;;;;;;;;5082333;28;20048;-65
2023/08/01 00:04:29;;;;;;;3.67;2.25;;;;;;;;;;5084610;28;20573;-65
2023/08/01 00:06:57;;;;;;;5.63;1.70;;;;;;;;;;5086611;28;20124;-65
2023/08/01 00:09:26;;;;;;;4.22;2.17;;;;;;;;;;5086228;28;20094;-65
2023/08/01 00:11:55;;;;;;;3.78;1.98;;;;;;;;;;5085735;28;20056;-65
2023/08/01 00:14:24;;;;;;;4.07;2.13;;;;;;;;;;5091127;28;20048;-64
2023/08/01 00:16:53;;;;;;;6.90;2.10;;;;;;;;;;5091434;28;20048;-65
2023/08/01 00:19:21;;;;;;;5.70;1.88;;;;;;;;;;5089035;28;20050;-64
2023/08/01 00:21:50;;;;;;;3.83;2.20;;;;;;;;;;5090556;28;20151;-65
2023/08/01 00:24:18;;;;;;;4.72;1.90;;;;;;;;;;5089660;28;20048;-65
2023/08/01 00:26:47;;;;;;;3.00;1.77;;;;;;;;;;5089890;28;20044;-65
2023/08/01 00:29:17;;;;;;;3.88;1.90;;;;;;;;;;5092017;28;20047;-65
2023/08/01 00:31:45;;;;;;;7.57;1.85;;;;;;;;;;5091827;28;20430;-65
2023/08/01 00:34:14;;;;;;;7.40;1.80;;;;;;;;;;5088800;28;20048;-65
2023/08/01 00:36:42;;;;;;;3.65;2.00;;;;;;;;;;5088818;28;20040;-65
2023/08/01 00:39:10;;;;;;;5.82;1.88;;;;;;;;;;5088467;28;20090;-66
2023/08/01 00:41:39;;;;;;;3.70;1.88;;;;;;;;;;5090337;28;20107;-65
2023/08/01 00:44:07;;;;;;;4.45;2.10;;;;;;;;;;5085764;28;20144;-65
2023/08/01 00:46:37;;;;;;;5.22;1.98;;;;;;;;;;5088522;28;20485;-65
2023/08/01 00:49:08;;;;;;;6.78;2.20;;;;;;;;;;5093556;28;20058;-65
2023/08/01 00:51:36;;;;;;;5.25;2.58;;;;;;;;;;5091506;28;20508;-64
2023/08/01 00:54:04;;;;;;;5.65;2.13;;;;;;;;;;5090996;28;20144;-64
2023/08/01 00:56:33;;;;;;;3.65;1.70;;;;;;;;;;5086939;28;20056;-64
2023/08/01 00:59:01;;;;;;;3.35;1.70;;;;;;;;;;5092714;28;20036;-65
2023/08/01 01:01:30;;;;;;;3.10;2.45;;;;;;;;;;5090633;28;20484;-65
2023/08/01 01:04:00;;;;;;;6.07;2.25;;;;;;;;;;5122060;22;20059;-63
2023/08/01 01:06:33;;;;;;;2.67;1.67;;;;;;;;;;5107786;27;20051;-66
2023/08/01 01:09:04;;;;;;;2.88;1.42;;;;;;;;;;5097441;28;20040;-64
2023/08/01 01:11:33;;;;;;;4.18;1.90;;;;;;;;;;5095742;27;20055;-65
2023/08/01 01:14:01;;;;;;;3.47;1.75;;;;;;;;;;5110320;27;20043;-61
2023/08/01 01:16:30;;;;;;;6.80;2.00;;;;;;;;;;5090001;28;20080;-63
2023/08/01 01:18:59;;;;;;;6.45;1.92;;;;;;;;;;5105840;27;20119;-62
2023/08/01 01:21:29;;;;;;;4.57;2.35;;;;;;;;;;5114823;27;20043;-64
2023/08/01 01:23:58;;;;;;;5.97;2.03;;;;;;;;;;5107130;28;20040;-62
2023/08/01 01:26:27;;;;;;;6.07;1.88;;;;;;;;;;5096830;28;20052;-62
2023/08/01 01:28:56;;;;;;;3.92;2.08;;;;;;;;;;5106636;28;20086;-63
2023/08/01 01:31:24;;;;;;;2.65;1.50;;;;;;;;;;5106292;27;20132;-62
2023/08/01 01:33:53;;;;;;;3.78;1.80;;;;;;;;;;5113348;27;20112;-62
2023/08/01 01:36:22;;;;;;;5.25;1.88;;;;;;;;;;5113030;27;20131;-61
2023/08/01 01:38:51;;;;;;;4.35;1.70;;;;;;;;;;5098572;28;20105;-61
2023/08/01 01:41:20;;;;;;;4.55;1.73;;;;;;;;;;5087442;27;20380;-61
2023/08/01 01:43:48;;;;;;;4.15;2.00;;;;;;;;;;5115834;27;20047;-60
2023/08/01 01:46:16;;;;;;;4.57;2.10;;;;;;;;;;5118902;27;20071;-62
2023/08/01 01:48:45;;;;;;;4.05;1.88;;;;;;;;;;5111016;27;20381;-61
2023/08/01 01:51:13;;;;;;;5.15;1.80;;;;;;;;;;5103899;28;20463;-61
2023/08/01 01:53:41;;;;;;;3.58;2.00;;;;;;;;;;5106620;28;20044;-62
2023/08/01 01:56:11;;;;;;;5.45;2.33;;;;;;;;;;5102880;28;20044;-62
2023/08/01 01:58:39;;;;;;;5.65;2.00;;;;;;;;;;5109926;28;20071;-62
2023/08/01 02:01:08;;;;;;;5.82;1.90;;;;;;;;;;5103701;28;20089;-62
2023/08/01 02:03:36;;;;;;;3.92;1.92;;;;;;;;;;5110894;27;20054;-62
2023/08/01 02:06:05;;;;;;;6.60;2.17;;;;;;;;;;5105932;27;20511;-63
2023/08/01 02:08:33;;;;;;;7.32;2.30;;;;;;;;;;5105460;27;20081;-61
2023/08/01 02:11:01;;;;;;;3.80;2.13;;;;;;;;;;5122761;27;20095;-62
2023/08/01 02:13:31;;;;;;;6.55;1.92;;;;;;;;;;5110382;27;20496;-63
2023/08/01 02:16:02;;;;;;;4.60;2.15;;;;;;;;;;5101958;27;20055;-61
2023/08/01 02:18:30;;;;;;;5.20;2.10;;;;;;;;;;5104829;28;20059;-63
2023/08/01 02:20:59;;;;;;;5.50;2.38;;;;;;;;;;5102310;28;20381;-62
2023/08/01 02:23:27;;;;;;;3.95;1.92;;;;;;;;;;5100510;28;20516;-62
2023/08/01 02:25:56;;;;;;;3.50;2.10;;;;;;;;;;5098948;28;20579;-61
2023/08/01 02:28:24;;;;;;;4.32;1.98;;;;;;;;;;5108808;28;20103;-61
2023/08/01 02:30:54;;;;;;;4.38;2.17;;;;;;;;;;5103305;28;20104;-62
2023/08/01 02:33:22;;;;;;;3.28;1.75;;;;;;;;;;5101567;28;20056;-62
2023/08/01 02:35:51;;;;;;;3.08;1.65;;;;;;;;;;5094161;28;20039;-61
2023/08/01 02:38:19;;;;;;;4.53;2.20;;;;;;;;;;5098719;28;20071;-61
2023/08/01 02:40:47;;;;;;;5.05;2.00;;;;;;;;;;5099123;28;20039;-67
2023/08/01 02:43:17;;;;;;;3.60;1.80;;;;;;;;;;5111180;28;20156;-62
2023/08/01 02:45:45;;;;;;;3.75;2.13;;;;;;;;;;5101968;28;20091;-65
2023/08/01 02:48:15;;;;;;;3.97;1.75;;;;;;;;;;5094802;28;20373;-62
2023/08/01 02:50:43;;;;;;;5.03;2.03;;;;;;;;;;5102976;28;20067;-62
2023/08/01 02:53:11;;;;;;;6.95;2.45;;;;;;;;;;5103199;28;20044;-61
2023/08/01 02:55:40;;;;;;;4.03;1.80;;;;;;;;;;5096082;28;20128;-62
2023/08/01 02:58:08;;;;;;;4.18;1.90;;;;;;;;;;5098750;28;20051;-62
2023/08/01 03:00:40;;;;;;;3.80;1.65;;;;;;;;;;5101789;27;20051;-69
2023/08/01 03:03:08;;;;;;;4.65;2.38;;;;;;;;;;5108676;28;20059;-62
2023/08/01 03:05:38;;;;;;;4.28;2.10;;;;;;;;;;5109086;27;20051;-63
2023/08/01 03:08:07;;;;;;;4.30;1.80;;;;;;;;;;5090708;28;20076;-62
2023/08/01 03:10:35;;;;;;;4.38;2.05;;;;;;;;;;5108098;27;20101;-62
2023/08/01 03:13:04;;;;;;;6.93;2.33;;;;;;;;;;5096572;28;20503;-61
2023/08/01 03:15:33;;;;;;;4.25;1.75;;;;;;;;;;5101994;27;20135;-62
2023/08/01 03:18:01;;;;;;;2.90;1.80;;;;;;;;;;5097167;28;20094;-63
2023/08/01 03:20:30;;;;;;;6.43;2.17;;;;;;;;;;5110735;27;20070;-61
2023/08/01 03:22:59;;;;;;;3.58;1.98;;;;;;;;;;5094262;27;20100;-64
2023/08/01 03:25:28;;;;;;;5.13;1.92;;;;;;;;;;5111934;27;20590;-62
2023/08/01 03:27:56;;;;;;;4.47;1.83;;;;;;;;;;5115981;28;20751;-63
2023/08/01 03:30:25;;;;;;;4.53;2.38;;;;;;;;;;5093718;28;20064;-61
2023/08/01 03:32:53;;;;;;;3.45;2.08;;;;;;;;;;5111118;28;20094;-61
2023/08/01 03:35:21;;;;;;;4.60;2.22;;;;;;;;;;5106845;28;20541;-63
2023/08/01 03:37:52;;;;;;;3.22;2.13;;;;;;;;;;5111063;28;20067;-63
2023/08/01 03:40:21;;;;;;;5.47;1.98;;;;;;;;;;5104691;28;20044;-62
2023/08/01 03:42:50;;;;;;;9.23;2.50;;;;;;;;;;5108230;28;20109;-59
2023/08/01 03:45:18;;;;;;;10.18;2.28;;;;;;;;;;5097984;28;20459;-62
2023/08/01 03:47:46;;;;;;;5.95;2.78;;;;;;;;;;5103379;28;20047;-64
2023/08/01 03:50:15;;;;;;;8.43;2.90;;;;;;;;;;5107455;27;20422;-62
2023/08/01 03:52:43;;;;;;;7.57;2.85;;;;;;;;;;5105766;28;20047;-62
2023/08/01 03:55:12;;;;;;;10.55;2.90;;;;;;;;;;5103249;28;20047;-62
2023/08/01 03:57:42;;;;;;;5.70;2.45;;;;;;;;;;5107370;27;20067;-61
2023/08/01 04:00:13;;;;;;;5.70;2.45;;;;;;;;;;5088648;28;20066;-61
2023/08/01 04:02:42;;;;;;;9.48;2.78;;;;;;;;;;5092783;28;20073;-63
2023/08/01 04:05:14;;;;;;;11.35;3.05;;;;;;;;;;5115943;27;20465;-61
2023/08/01 04:07:43;;;;;;;11.95;3.20;;;;;;;;;;5106250;27;20044;-61
2023/08/01 04:10:11;;;;;;;6.07;2.70;;;;;;;;;;5091209;27;20089;-61
2023/08/01 04:12:40;;;;;;;12.48;3.35;;;;;;;;;;5109646;28;20136;-61
2023/08/01 04:15:10;;;;;;;8.13;3.30;;;;;;;;;;5104985;28;20051;-68
2023/08/01 04:17:38;;;;;;;11.18;3.03;;;;;;;;;;5107589;28;20075;-61
2023/08/01 04:20:08;;;;;;;10.38;2.95;;;;;;;;;;5107223;28;20055;-64
2023/08/01 04:22:36;;;;;;;5.72;2.50;;;;;;;;;;5106977;28;20454;-65
2023/08/01 04:25:05;;;;;;;6.55;2.85;;;;;;;;;;5098379;28;20445;-62
2023/08/01 04:27:33;;;;;;;8.60;2.60;;;;;;;;;;5108364;27;20040;-62
2023/08/01 04:30:01;;;;;;;5.68;2.75;;;;;;;;;;5097619;28;20052;-61
2023/08/01 04:32:31;;;;;;;6.00;2.85;;;;;;;;;;5111647;28;20048;-61
2023/08/01 04:35:00;;;;;;;8.40;2.83;;;;;;;;;;5101703;28;20086;-61
2023/08/01 04:37:28;;;;;;;5.50;2.33;;;;;;;;;;5108488;27;20047;-61
2023/08/01 04:39:56;;;;;;;5.63;2.50;;;;;;;;;;5102058;28;20044;-64
2023/08/01 04:42:25;;;;;;;5.28;2.90;;;;;;;;;;5092017;28;20057;-67
2023/08/01 04:44:53;;;;;;;9.40;2.20;;;;;;;;;;5101728;28;20453;-62
2023/08/01 04:47:22;;;;;;;5.50;2.92;;;;;;;;;;5109392;27;20047;-61
2023/08/01 04:49:52;;;;;;;10.57;2.83;;;;;;;;;;5106671;28;20058;-62
2023/08/01 04:52:21;;;;;;;6.47;3.05;;;;;;;;;;5101978;27;20101;-63
2023/08/01 04:54:49;;;;;;;5.85;2.65;;;;;;;;;;5101477;28;20052;-63
2023/08/01 04:57:17;;;;;;;5.30;2.63;;;;;;;;;;5094146;28;20503;-62
2023/08/01 04:59:46;;;;;;;6.90;2.38;;;;;;;;;;5102140;28;20056;-62
2023/08/01 05:02:14;;;;;;;7.43;2.75;;;;;;;;;;5099055;28;20052;-62
2023/08/01 05:04:42;;;;;;;6.05;3.00;;;;;;;;;;5093086;28;20044;-63
2023/08/01 05:07:12;;;;;;;5.97;2.90;;;;;;;;;;5104429;28;20098;-63
2023/08/01 05:09:40;;;;;;;8.18;2.72;;;;;;;;;;5106523;27;20048;-62
2023/08/01 05:12:09;;;;;;;6.38;2.67;;;;;;;;;;5114050;27;20099;-61
2023/08/01 05:14:38;;;;;;;6.13;2.65;;;;;;;;;;5103078;28;20128;-64
2023/08/01 05:17:06;;;;;;;9.73;3.30;;;;;;;;;;5108366;27;20051;-65
2023/08/01 05:19:35;;;;;;;11.68;3.15;;;;;;;;;;5108645;28;20048;-63
2023/08/01 05:22:03;;;;;;;7.07;2.80;;;;;;;;;;5105092;28;20083;-61
2023/08/01 05:24:33;;;;;;;7.05;3.28;;;;;;;;;;5107134;28;20080;-59
2023/08/01 05:27:01;;;;;;;10.35;3.47;;;;;;;;;;5104209;28;20048;-62
2023/08/01 05:29:29;;;;;;;11.05;3.03;;;;;;;;;;5101754;28;20099;-62
2023/08/01 05:31:58;;;;;;;7.32;2.85;;;;;;;;;;5098678;28;20098;-63
2023/08/01 05:34:26;;;;;;;8.70;2.75;;;;;;;;;;5096429;28;20495;-62
2023/08/01 05:36:54;;;;;;;7.38;3.10;;;;;;;;;;5103356;28;20044;-61
2023/08/01 05:39:23;;;;;;;5.85;2.53;;;;;;;;;;5109592;27;20488;-63
2023/08/01 05:41:53;;;;;;;7.70;3.42;;;;;;;;;;5104674;28;20108;-64
2023/08/01 05:44:21;;;;;;;7.28;2.80;;;;;;;;;;5109217;28;20044;-61
2023/08/01 05:46:49;;;;;;;6.65;3.00;;;;;;;;;;5106386;28;20047;-61
2023/08/01 05:49:18;;;;;;;6.18;2.88;;;;;;;;;;5102240;28;20048;-61
2023/08/01 05:51:46;;;;;;;9.27;2.83;;;;;;;;;;5087907;28;20113;-63
2023/08/01 05:54:15;;;;;;;7.07;2.80;;;;;;;;;;5096660;28;20043;-63
2023/08/01 05:56:43;;;;;;;10.07;3.00;;;;;;;;;;5103664;28;20052;-64
2023/08/01 05:59:13;;;;;;;5.82;3.03;;;;;;;;;;5094054;28;20094;-63
2023/08/01 06:01:43;;;;;;;8.40;3.70;;;;;;;;;;5093761;28;20054;-63
2023/08/01 06:04:11;;;;;;;8.45;2.92;;;;;;;;;;5101380;28;20081;-62
2023/08/01 06:06:40;;;;;;;7.95;2.50;;;;;;;;;;5106152;28;20498;-64
2023/08/01 06:09:09;;;;;;;5.13;2.58;;;;;;;;;;5097653;28;20043;-65
2023/08/01 06:11:37;;;;;;;6.80;2.80;;;;;;;;;;5096883;27;20043;-63
2023/08/01 06:14:06;;;;;;;4.60;2.80;;;;;;;;;;5074576;28;20187;-64
2023/08/01 06:16:35;;;;;;;5.75;2.40;;;;;;;;;;5100274;28;20096;-62
2023/08/01 06:19:04;;;;;;;6.63;2.33;;;;;;;;;;5097306;28;20051;-63
2023/08/01 06:21:32;;;;;;;7.07;3.03;;;;;;;;;;5109539;28;20040;-63
2023/08/01 06:24:01;;;;;;;5.47;2.47;;;;;;;;;;5090430;28;20048;-62
2023/08/01 06:26:29;;;;;;;8.23;2.58;;;;;;;;;;5104513;28;20097;-61
2023/08/01 06:28:57;;;;;;;4.13;2.33;;;;;;;;;;5100390;27;20044;-62
2023/08/01 06:31:26;;;;;;;7.85;3.05;;;;;;;;;;5104811;28;20131;-63
2023/08/01 06:33:56;;;;;;;6.93;2.83;;;;;;;;;;5101346;28;20492;-64
2023/08/01 06:36:24;;;;;;;5.13;2.33;;;;;;;;;;5106448;28;20088;-61
2023/08/01 06:38:52;;;;;;;6.65;2.45;;;;;;;;;;5105125;28;20117;-63
2023/08/01 06:41:21;;;;;;;8.98;2.70;;;;;;;;;;5108181;27;20395;-61
2023/08/01 06:43:49;;;;;;;5.28;2.67;;;;;;;;;;5112220;27;20055;-65
2023/08/01 06:46:17;;;;;;;5.10;2.55;;;;;;;;;;5094999;28;20128;-61
2023/08/01 06:48:46;;;;;;;5.25;2.47;;;;;;;;;;5104391;27;20058;-63
2023/08/01 06:51:16;;;;;;;6.82;2.53;;;;;;;;;;5097289;28;20044;-61
2023/08/01 06:53:44;;;;;;;4.47;2.58;;;;;;;;;;5103293;28;20052;-62
2023/08/01 06:56:12;;;;;;;6.95;2.53;;;;;;;;;;5098088;28;20096;-61
2023/08/01 06:58:41;;;;;;;5.13;2.25;;;;;;;;;;5098581;28;20043;-62
2023/08/01 07:01:09;;;;;;;6.10;3.08;;;;;;;;;;5102682;28;20379;-61
2023/08/01 07:03:38;;;;;;;5.78;2.83;;;;;;;;;;5094860;28;20484;-63
2023/08/01 07:06:06;;;;;;;5.40;2.50;;;;;;;;;;5111678;27;20101;-63
2023/08/01 07:08:37;;;;;;;4.13;2.45;;;;;;;;;;5100246;28;20120;-64
2023/08/01 07:11:05;;;;;;;7.72;2.67;;;;;;;;;;5101958;28;20047;-60
2023/08/01 07:13:33;;;;;;;5.80;2.38;;;;;;;;;;5108066;27;20434;-65
2023/08/01 07:16:02;;;;;;;6.32;2.45;;;;;;;;;;5102487;28;20051;-60
2023/08/01 07:18:30;;;;;;;5.00;2.20;;;;;;;;;;5105103;28;20056;-64
2023/08/01 07:21:02;;;;;;;3.45;2.10;;;;;;;;;;5098293;28;20052;-62
2023/08/01 07:23:30;;;;;;;4.63;2.22;;;;;;;;;;5097420;27;20093;-62
2023/08/01 07:26:00;;;;;;;5.28;2.15;;;;;;;;;;5103549;28;20496;-61
2023/08/01 07:28:29;;;;;;;3.88;1.92;;;;;;;;;;5107819;27;20040;-61
2023/08/01 07:31:00;;;;;;;6.05;2.67;;;;;;;;;;5094101;28;20085;-62
2023/08/01 07:33:29;;;;;;;6.18;2.95;;;;;;;;;;5098866;28;20044;-61
2023/08/01 07:35:58;;;;;;;3.60;2.05;;;;;;;;;;5105255;28;20636;-59
2023/08/01 07:38:27;;;;;;;4.82;2.40;;;;;;;;;;5095835;28;20135;-63
2023/08/01 07:40:56;;;;;;;3.22;2.08;;;;;;;;;;5092017;28;20040;-62
2023/08/01 07:43:27;;;;;;;5.45;2.47;;;;;;;;;;5099836;28;20055;-60
2023/08/01 07:45:57;;;;;;;7.43;2.65;;;;;;;;;;5091443;28;20043;-60
2023/08/01 07:48:25;;;;;;;5.13;2.30;;;;;;;;;;5104245;28;20052;-63
2023/08/01 07:50:54;;;;;;;4.20;2.00;;;;;;;;;;5094567;28;20051;-60
2023/08/01 07:53:22;;;;;;;8.25;2.33;;;;;;;;;;5099592;28;20046;-60
2023/08/01 07:55:53;;;;;;;5.28;1.90;;;;;;;;;;5091453;28;20091;-60
2023/08/01 07:58:21;;;;;;;4.18;1.83;;;;;;;;;;5103529;28;20130;-67
2023/08/01 08:00:51;;;;;;;7.03;2.33;;;;;;;;;;5100509;28;20074;-62
2023/08/01 08:03:22;;;;;;;6.00;2.20;;;;;;;;;;5102575;28;20088;-64
2023/08/01 08:05:50;;;;;;;3.58;2.00;;;;;;;;;;5098112;28;20477;-62
2023/08/01 08:08:19;;;;;;;8.45;2.60;;;;;;;;;;5108322;28;20047;-60
2023/08/01 08:10:47;;;;;;;7.53;2.53;;;;;;;;;;5103665;28;20096;-64
2023/08/01 08:13:16;;;;;;;6.55;2.40;;;;;;;;;;5096791;28;20051;-64
2023/08/01 08:15:44;;;;;;;4.50;2.10;;;;;;;;;;5093456;28;20420;-61
2023/08/01 08:18:14;;;;;;;5.38;2.10;;;;;;;;;;5101973;28;20127;-61
2023/08/01 08:20:45;;;;;;;4.75;1.88;;;;;;;;;;5095165;28;20348;-61
2023/08/01 08:23:14;;;;;;;3.05;1.65;;;;;;;;;;5097014;28;20439;-64
2023/08/01 08:25:44;;;;;;;3.78;2.33;;;;;;;;;;5090753;28;20094;-63
2023/08/01 08:28:13;;;;;;;3.90;2.13;;;;;;;;;;5098356;28;20031;-62
2023/08/01 08:30:42;;;;;;;5.15;2.40;;;;;;;;;;5095627;28;20135;-62
2023/08/01 08:33:10;;;;;;;4.38;2.03;;;;;;;;;;5101144;28;20066;-62
2023/08/01 08:35:41;;;;;;;4.10;2.50;;;;;;;;;;5102768;27;20438;-65
2023/08/01 08:38:10;;;;;;;6.78;2.15;;;;;;;;;;5104065;27;20109;-68
2023/08/01 08:40:42;;;;;;;4.43;2.05;;;;;;;;;;5105759;27;20089;-65
2023/08/01 08:43:10;;;;;;;3.63;2.00;;;;;;;;;;5100148;28;20040;-63
2023/08/01 08:45:42;;;;;;;5.90;2.40;;;;;;;;;;5107207;28;20104;-66
2023/08/01 08:48:14;;;;;;;4.28;2.55;;;;;;;;;;5088437;28;20074;-66
2023/08/01 08:50:44;;;;;;;5.10;2.50;;;;;;;;;;5103273;27;20513;-66
2023/08/01 08:53:13;;;;;;;4.32;2.10;;;;;;;;;;5102000;27;20576;-65
2023/08/01 08:55:41;;;;;;;5.50;2.45;;;;;;;;;;5105615;28;20051;-65
2023/08/01 08:58:10;;;;;;;7.35;2.47;;;;;;;;;;5101791;28;20096;-68
2023/08/01 09:00:39;;;;;;;3.92;2.05;;;;;;;;;;5091444;28;20048;-65
2023/08/01 09:03:07;;;;;;;6.60;2.30;;;;;;;;;;5096346;27;20600;-63
2023/08/01 09:05:39;;;;;;;4.70;2.30;;;;;;;;;;5104727;27;20087;-67
2023/08/01 09:08:13;;;;;;;5.75;2.08;;;;;;;;;;5105495;27;20106;-63
2023/08/01 09:10:42;;;;;;;9.82;2.38;;;;;;;;;;5106148;27;20531;-64
2023/08/01 09:13:10;;;;;;;5.03;2.03;;;;;;;;;;5105318;27;20090;-64
2023/08/01 09:15:39;;;;;;;7.28;2.05;;;;;;;;;;5100218;28;20048;-63
2023/08/01 09:18:08;;;;;;;6.10;2.17;;;;;;;;;;5105909;27;20464;-65
2023/08/01 09:20:43;;;;;;;5.55;2.33;;;;;;;;;;5104588;28;20131;-66
2023/08/01 09:23:16;;;;;;;4.43;1.92;;;;;;;;;;5103759;28;20040;-61
2023/08/01 09:25:45;;;;;;;3.97;2.15;;;;;;;;;;5100897;27;20044;-62
2023/08/01 09:28:17;;;;;;;4.25;2.10;;;;;;;;;;5096111;28;20051;-61
2023/08/01 09:30:49;;;;;;;4.05;1.90;;;;;;;;;;5098213;28;20581;-62
2023/08/01 09:33:18;;;;;;;6.30;2.58;;;;;;;;;;5107689;27;20399;-62
2023/08/01 09:35:46;;;;;;;4.03;2.25;;;;;;;;;;5100524;27;20547;-62
2023/08/01 09:38:16;;;;;;;6.78;2.40;;;;;;;;;;5106246;28;20550;-62
2023/08/01 09:40:45;;;;;;;8.85;2.75;;;;;;;;;;5103405;28;20040;-62
2023/08/01 09:43:14;;;;;;;5.07;2.40;;;;;;;;;;5109921;28;20043;-63
2023/08/01 09:45:52;;;;;;;4.20;1.90;;;;;;;;;;5105290;28;20134;-62
2023/08/01 09:48:25;;;;;;;4.22;2.03;;;;;;;;;;5102707;27;20097;-64
2023/08/01 09:50:54;;;;;;;6.47;2.60;;;;;;;;;;5098970;28;20074;-63
2023/08/01 09:53:23;;;;;;;4.18;2.05;;;;;;;;;;5094798;28;20044;-62
2023/08/01 09:55:53;;;;;;;6.20;2.65;;;;;;;;;;5105125;28;20055;-62
2023/08/01 09:58:23;;;;;;;5.90;2.47;;;;;;;;;;5095135;27;20048;-63
2023/08/01 10:00:51;;;;;;;2.85;1.85;;;;;;;;;;5103476;28;20058;-61
2023/08/01 10:03:20;;;;;;;5.57;2.35;;;;;;;;;;5095846;28;20056;-62
2023/08/01 10:05:53;;;;;;;8.48;2.47;;;;;;;;;;5090536;28;20056;-63
2023/08/01 10:08:22;;;;;;;4.13;2.10;;;;;;;;;;5111054;27;20130;-62
2023/08/01 10:10:52;;;;;;;5.00;2.38;;;;;;;;;;5100107;28;20456;-64
2023/08/01 10:13:22;;;;;;;5.75;2.25;;;;;;;;;;5102831;27;20078;-62
2023/08/01 10:15:51;;;;;;;5.40;2.17;;;;;;;;;;5085499;28;20573;-61
2023/08/01 10:18:20;;;;;;;6.05;2.58;;;;;;;;;;5085027;28;20415;-63
2023/08/01 10:20:49;;;;;;;3.63;1.83;;;;;;;;;;5085479;28;20493;-61
2023/08/01 10:23:18;;;;;;;5.55;2.28;;;;;;;;;;5091299;28;20043;-62
2023/08/01 10:25:47;;;;;;;4.00;2.03;;;;;;;;;;5098361;28;20048;-63
2023/08/01 10:28:16;;;;;;;6.63;2.28;;;;;;;;;;5097079;28;20090;-61
2023/08/01 10:30:45;;;;;;;7.32;2.67;;;;;;;;;;5095868;27;20043;-65
2023/08/01 10:33:13;;;;;;;4.63;1.83;;;;;;;;;;5090375;28;20473;-65
2023/08/01 10:35:42;;;;;;;8.55;2.47;;;;;;;;;;5094961;28;20055;-63
2023/08/01 10:38:11;;;;;;;4.20;2.08;;;;;;;;;;5097087;28;20052;-62
2023/08/01 10:40:41;;;;;;;4.75;2.10;;;;;;;;;;5096287;28;20083;-61
2023/08/01 10:43:22;;;;;;;3.53;2.03;;;;;;;;;;5103694;28;20096;-62
2023/08/01 10:45:50;;;;;;;6.32;2.65;;;;;;;;;;5097018;28;20059;-63
2023/08/01 10:48:18;;;;;;;4.18;2.15;;;;;;;;;;5094036;28;20075;-62
2023/08/01 10:50:56;;;;;;;6.38;2.13;;;;;;;;;;5113229;27;20104;-63
2023/08/01 10:53:25;;;;;;;5.88;2.53;;;;;;;;;;5103974;28;20228;-61
2023/08/01 10:55:53;;;;;;;5.82;2.22;;;;;;;;;;5098993;28;20393;-62
2023/08/01 10:58:28;;;;;;;5.05;2.28;;;;;;;;;;5093964;28;20444;-62
2023/08/01 11:00:59;;;;;;;4.95;2.13;;;;;;;;;;5099236;27;20052;-62
2023/08/01 11:03:35;;;;;;;4.00;2.20;;;;;;;;;;5107122;28;20100;-61
2023/08/01 11:06:04;;;;;;;3.72;1.92;;;;;;;;;;5108114;27;20093;-61
2023/08/01 11:08:37;;;;;;;3.78;1.83;;;;;;;;;;5100415;28;20138;-61
2023/08/01 11:11:07;;;;;;;2.67;1.77;;;;;;;;;;5101374;28;20039;-61
2023/08/01 11:13:36;;;;;;;5.22;2.15;;;;;;;;;;5109268;27;20050;-63
2023/08/01 11:16:06;;;;;;;3.63;2.13;;;;;;;;;;5103267;28;20082;-61
2023/08/01 11:18:42;;;;;;;3.28;1.52;;;;;;;;;;5093425;28;20146;-61
2023/08/01 11:21:11;;;;;;;4.55;1.80;;;;;;;;;;5095383;28;20463;-61
2023/08/01 11:23:39;;;;;;;4.82;1.63;;;;;;;;;;5108263;27;20079;-61
2023/08/01 11:26:08;;;;;;;2.58;1.33;;;;;;;;;;5097391;28;20333;-63
2023/08/01 11:28:38;;;;;;;4.60;1.80;;;;;;;;;;5093666;28;20048;-63
2023/08/01 11:31:13;;;;;;;2.50;1.20;;;;;;;;;;5093291;28;20067;-61
2023/08/01 11:33:41;;;;;;;4.45;1.70;;;;;;;;;;5111326;27;20514;-62
2023/08/01 11:36:10;;;;;;;3.72;1.40;;;;;;;;;;5105483;28;20096;-60
2023/08/01 11:38:38;;;;;;;2.30;1.25;;;;;;;;;;5106706;28;20044;-63
2023/08/01 11:41:07;;;;;;;3.95;1.73;;;;;;;;;;5107124;28;20048;-62
2023/08/01 11:43:43;;;;;;;7.35;1.52;;;;;;;;;;5104666;28;20052;-61
2023/08/01 11:46:12;;;;;;;3.38;1.58;;;;;;;;;;5088752;28;20055;-62
2023/08/01 11:48:40;;;;;;;3.90;1.13;;;;;;;;;;5093871;28;20097;-61
2023/08/01 11:51:09;;;;;;;4.22;1.77;;;;;;;;;;5101063;28;20104;-64
2023/08/01 11:53:38;;;;;;;3.85;1.58;;;;;;;;;;5099182;28;20097;-63
2023/08/01 11:56:07;;;;;;;2.35;1.30;;;;;;;;;;5101419;28;20537;-61
2023/08/01 11:58:37;;;;;;;3.95;1.98;;;;;;;;;;5107997;28;20052;-62
2023/08/01 12:01:08;;;;;;;3.30;1.80;;;;;;;;;;5109139;28;20102;-62
2023/08/01 12:03:43;;;;;;;3.92;1.75;;;;;;;;;;5101418;28;20066;-62
2023/08/01 12:06:13;;;;;;;5.15;1.80;;;;;;;;;;5084964;28;20063;-62
2023/08/01 12:08:43;;;;;;;6.70;1.90;;;;;;;;;;5094687;28;20075;-61
2023/08/01 12:11:19;;;;;;;5.18;2.03;;;;;;;;;;5107867;28;20044;-62
2023/08/01 12:13:48;;;;;;;3.40;1.90;;;;;;;;;;5112115;28;20046;-62
2023/08/01 12:16:20;;;;;;;5.97;2.15;;;;;;;;;;5112983;28;20097;-61
2023/08/01 12:18:48;;;;;;;3.38;1.42;;;;;;;;;;5107189;27;20051;-61
2023/08/01 12:21:27;;;;;;;5.15;2.08;;;;;;;;;;5106566;27;20051;-62
2023/08/01 12:23:55;;;;;;;4.03;1.55;;;;;;;;;;5109009;28;20044;-61
2023/08/01 12:26:24;;;;;;;5.80;1.80;;;;;;;;;;5103410;28;20088;-63
2023/08/01 12:28:52;;;;;;;3.17;1.80;;;;;;;;;;5097251;28;20043;-63
2023/08/01 12:31:23;;;;;;;4.40;1.70;;;;;;;;;;5100441;28;20039;-62
2023/08/01 12:33:53;;;;;;;3.58;1.73;;;;;;;;;;5095561;28;20175;-61
2023/08/01 12:36:20;;;;;;;4.30;2.15;;;;;;;;;;5090511;28;20100;-62
2023/08/01 12:38:49;;;;;;;3.28;1.58;;;;;;;;;;5091843;28;20069;-63
2023/08/01 12:41:18;;;;;;;3.13;1.35;;;;;;;;;;5098812;27;20381;-62
2023/08/01 12:43:46;;;;;;;3.53;1.75;;;;;;;;;;5092701;28;20055;-63
2023/08/01 12:46:14;;;;;;;3.40;1.77;;;;;;;;;;5091834;28;20039;-62
2023/08/01 12:48:44;;;;;;;4.15;1.88;;;;;;;;;;5098140;28;20652;-61
2023/08/01 12:51:14;;;;;;;6.63;2.25;;;;;;;;;;5090071;28;20139;-62
2023/08/01 12:53:43;;;;;;;3.58;1.40;;;;;;;;;;5101319;28;20510;-60
2023/08/01 12:56:11;;;;;;;3.78;1.48;;;;;;;;;;5100051;28;20052;-64
2023/08/01 12:58:40;;;;;;;1.80;1.30;;;;;;;;;;5103641;27;20051;-62
2023/08/01 13:01:08;;;;;;;4.32;1.73;;;;;;;;;;5106176;28;20062;-60
2023/08/01 13:03:37;;;;;;;3.22;1.70;;;;;;;;;;5102854;28;20058;-61
2023/08/01 13:06:06;;;;;;;2.75;1.40;;;;;;;;;;5095928;28;20050;-61
2023/08/01 13:08:35;;;;;;;3.95;1.40;;;;;;;;;;5098548;28;20497;-61
2023/08/01 13:11:10;;;;;;;3.78;2.00;;;;;;;;;;5106643;27;20059;-62
2023/08/01 13:13:39;;;;;;;3.63;1.50;;;;;;;;;;5104290;28;20077;-64
2023/08/01 13:16:07;;;;;;;4.18;1.35;;;;;;;;;;5106921;27;20052;-61
2023/08/01 13:18:37;;;;;;;4.45;1.48;;;;;;;;;;5101559;28;20534;-61
2023/08/01 13:21:06;;;;;;;2.92;1.40;;;;;;;;;;5106937;27;20403;-66
2023/08/01 13:23:35;;;;;;;2.08;1.05;;;;;;;;;;5099720;28;20554;-61
2023/08/01 13:26:03;;;;;;;3.80;1.65;;;;;;;;;;5106047;27;20110;-61
2023/08/01 13:28:31;;;;;;;4.28;1.50;;;;;;;;;;5108481;27;20048;-60
2023/08/01 13:31:00;;;;;;;2.72;1.13;;;;;;;;;;5102325;27;20074;-60
2023/08/01 13:33:29;;;;;;;2.33;1.13;;;;;;;;;;5108343;28;20044;-61
2023/08/01 13:35:58;;;;;;;3.80;1.70;;;;;;;;;;5103069;27;20089;-62
2023/08/01 13:38:28;;;;;;;2.70;1.40;;;;;;;;;;5098926;27;20074;-63
2023/08/01 13:41:01;;;;;;;3.25;1.52;;;;;;;;;;5102830;28;20403;-60
2023/08/01 13:43:38;;;;;;;3.35;2.10;;;;;;;;;;5103473;28;20114;-61
2023/08/01 13:46:11;;;;;;;3.28;1.50;;;;;;;;;;5101328;28;20048;-62
2023/08/01 13:48:56;;;;;;;3.42;1.45;;;;;;;;;;5092412;28;20101;-63
2023/08/01 13:51:25;;;;;;;3.00;1.40;;;;;;;;;;5105387;28;20492;-61
2023/08/01 13:53:55;;;;;;;2.33;1.42;;;;;;;;;;5099016;27;20047;-61
2023/08/01 13:56:23;;;;;;;3.33;1.60;;;;;;;;;;5103103;27;20127;-63
2023/08/01 13:58:51;;;;;;;3.38;1.67;;;;;;;;;;5109407;27;20105;-62
2023/08/01 14:01:20;;;;;;;2.97;1.42;;;;;;;;;;5103017;28;20040;-63
2023/08/01 14:03:48;;;;;;;3.47;1.70;;;;;;;;;;5099089;28;20105;-61
2023/08/01 14:06:17;;;;;;;4.85;1.67;;;;;;;;;;5109351;27;20040;-61
2023/08/01 14:08:45;;;;;;;5.55;1.70;;;;;;;;;;5101690;28;20054;-61
2023/08/01 14:11:15;;;;;;;4.95;1.90;;;;;;;;;;5107084;27;20067;-60
2023/08/01 14:13:43;;;;;;;4.68;1.58;;;;;;;;;;5103769;28;20089;-60
2023/08/01 14:16:12;;;;;;;3.33;1.75;;;;;;;;;;5098484;28;20118;-60
2023/08/01 14:18:41;;;;;;;4.50;1.95;;;;;;;;;;5094669;27;20116;-60
2023/08/01 14:21:09;;;;;;;4.00;1.98;;;;;;;;;;5091336;28;20044;-61
2023/08/01 14:23:39;;;;;;;6.07;2.17;;;;;;;;;;5109784;27;20044;-60
2023/08/01 14:26:08;;;;;;;3.42;1.50;;;;;;;;;;5107601;27;20126;-60
2023/08/01 14:28:37;;;;;;;4.20;1.77;;;;;;;;;;5103343;28;20503;-62
2023/08/01 14:31:07;;;;;;;3.63;1.80;;;;;;;;;;5095779;28;20067;-60
2023/08/01 14:33:35;;;;;;;4.22;1.33;;;;;;;;;;5103037;27;20056;-61
2023/08/01 14:36:08;;;;;;;1.33;1.00;;;;;;;;;;5096662;28;20063;-62
2023/08/01 14:38:37;;;;;;;3.08;1.13;;;;;;;;;;5106398;28;20050;-61
2023/08/01 14:41:05;;;;;;;3.15;1.10;;;;;;;;;;5099314;28;20077;-60
2023/08/01 14:43:51;;;;;;;3.20;0.98;;;;;;;;;;5097663;28;20495;-61
2023/08/01 14:46:19;;;;;;;1.67;1.05;;;;;;;;;;5095611;28;20071;-61
2023/08/01 14:48:47;;;;;;;4.68;1.25;;;;;;;;;;5102746;28;20050;-62
2023/08/01 14:51:16;;;;;;;5.38;1.35;;;;;;;;;;5103241;28;20044;-60
2023/08/01 14:53:44;;;;;;;3.38;1.10;;;;;;;;;;5099789;27;20493;-59
2023/08/01 14:56:13;;;;;;;3.63;1.23;;;;;;;;;;5106518;28;20108;-60